createdAt,value
2019-04-14T00:02:34.022Z,7.89
2019-04-14T00:05:06.127Z,7.85
2019-04-14T00:07:36.290Z,7.88
2019-04-14T00:10:09.255Z,7.94
2019-04-14T00:12:38.759Z,7.94
2019-04-14T00:15:21.171Z,7.97
2019-04-14T00:17:41.376Z,8.05
2019-04-14T00:20:11.874Z,8.01
2019-04-14T00:22:42.443Z,8.03
2019-04-14T00:25:13.015Z,7.98
2019-04-14T00:27:43.225Z,7.95
2019-04-14T00:30:14.476Z,7.96
2019-04-14T00:32:48.785Z,7.89
2019-04-14T00:35:30.645Z,7.93
2019-04-14T00:38:20.146Z,7.93
2019-04-14T00:41:09.382Z,7.91
2019-04-14T00:43:44.062Z,7.96
2019-04-14T00:46:21.173Z,7.93
2019-04-14T00:48:53.867Z,7.90
2019-04-14T00:51:24.470Z,7.91
2019-04-14T00:53:53.967Z,7.93
2019-04-14T00:56:23.668Z,7.93
2019-04-14T00:58:53.959Z,7.88
2019-04-14T01:01:24.397Z,7.93
2019-04-14T01:03:54.785Z,8.00
2019-04-14T01:06:25.079Z,8.03
2019-04-14T01:08:55.400Z,6.02
2019-04-14T01:11:24.937Z,7.89
2019-04-14T01:13:55.074Z,7.83
2019-04-14T01:16:25.439Z,7.86
2019-04-14T01:18:55.880Z,7.88
2019-04-14T01:21:26.368Z,7.98
2019-04-14T01:23:56.619Z,8.01
2019-04-14T01:26:26.745Z,7.97
2019-04-14T01:28:56.793Z,7.97
2019-04-14T01:31:27.334Z,8.09
2019-04-14T01:33:57.629Z,8.02
2019-04-14T01:36:27.686Z,8.02
2019-04-14T01:38:58.141Z,8.06
2019-04-14T01:41:28.223Z,8.06
2019-04-14T01:43:58.256Z,8.02
2019-04-14T01:46:29.981Z,8.03
2019-04-14T01:48:58.683Z,8.03
2019-04-14T01:51:39.714Z,8.04
2019-04-14T01:54:26.179Z,8.10
2019-04-14T01:57:15.289Z,8.18
2019-04-14T01:59:45.925Z,8.15
2019-04-14T02:02:18.659Z,8.15
2019-04-14T02:04:48.539Z,8.12
2019-04-14T02:07:19.024Z,8.25
2019-04-14T02:09:48.933Z,8.16
2019-04-14T02:12:19.233Z,8.04
2019-04-14T02:14:49.497Z,8.28
2019-04-14T02:17:19.842Z,8.29
2019-04-14T02:19:50.284Z,8.30
2019-04-14T02:22:20.295Z,8.27
2019-04-14T02:24:50.296Z,8.23
2019-04-14T02:27:20.942Z,8.18
2019-04-14T02:29:51.541Z,8.17
2019-04-14T02:32:51.304Z,8.18
2019-04-14T02:37:58.911Z,8.20
2019-04-14T02:43:12.887Z,8.16
2019-04-14T02:45:26.766Z,8.15
2019-04-14T02:53:03.770Z,8.25
2019-04-14T02:55:21.392Z,8.23
2019-04-14T02:58:04.182Z,8.18
2019-04-14T03:00:31.651Z,8.27
2019-04-14T03:03:01.222Z,8.27
2019-04-14T03:05:37.577Z,8.31
2019-04-14T03:10:40.339Z,8.30
2019-04-14T03:13:21.223Z,8.30
2019-04-14T03:15:39.824Z,8.22
2019-04-14T03:21:30.625Z,8.11
2019-04-14T03:24:17.022Z,8.07
2019-04-14T03:27:00.323Z,8.14
2019-04-14T03:29:28.882Z,8.16
2019-04-14T03:32:19.098Z,8.16
2019-04-14T03:37:27.126Z,8.19
2019-04-14T03:44:41.341Z,8.14
2019-04-14T03:49:58.365Z,8.13
2019-04-14T03:52:03.694Z,8.09
2019-04-14T03:54:36.693Z,8.16
2019-04-14T03:56:51.748Z,8.18
2019-04-14T03:59:21.886Z,8.18
2019-04-14T04:01:52.256Z,8.22
2019-04-14T04:04:22.737Z,8.23
2019-04-14T04:06:53.169Z,8.13
2019-04-14T04:09:27.811Z,8.03
2019-04-14T04:11:58.378Z,8.01
2019-04-14T04:14:28.056Z,8.03
2019-04-14T04:17:34.029Z,8.03
2019-04-14T04:20:32.601Z,8.07
2019-04-14T04:23:21.095Z,8.18
2019-04-14T04:26:04.077Z,8.19
2019-04-14T04:28:56.228Z,8.18
2019-04-14T04:31:46.224Z,8.10
2019-04-14T04:34:27.312Z,8.25
2019-04-14T04:37:06.785Z,8.43
2019-04-14T04:39:39.776Z,8.58
2019-04-14T04:42:11.148Z,8.91
2019-04-14T04:44:42.033Z,10.09
2019-04-14T04:47:12.388Z,10.85
2019-04-14T04:49:42.629Z,10.10
2019-04-14T04:52:13.926Z,11.39
2019-04-14T04:54:44.907Z,11.97
2019-04-14T04:57:15.481Z,12.59
2019-04-14T04:59:45.308Z,12.75
2019-04-14T05:02:15.543Z,12.86
2019-04-14T05:04:46.024Z,13.21
2019-04-14T05:07:16.554Z,13.20
2019-04-14T05:10:24.202Z,13.39
2019-04-14T05:13:14.095Z,13.41
2019-04-14T05:15:46.578Z,13.72
2019-04-14T05:18:24.683Z,14.14
2019-04-14T05:20:55.392Z,13.90
2019-04-14T05:23:25.617Z,13.83
2019-04-14T05:25:56.137Z,13.75
2019-04-14T05:28:26.703Z,14.29
2019-04-14T05:30:56.886Z,14.28
2019-04-14T05:33:27.138Z,13.78
2019-04-14T05:35:57.418Z,14.28
2019-04-14T05:38:30.270Z,14.85
2019-04-14T05:40:58.547Z,15.23
2019-04-14T05:43:37.092Z,14.77
2019-04-14T05:45:59.192Z,14.77
2019-04-14T05:48:29.365Z,14.73
2019-04-14T05:50:59.860Z,15.44
2019-04-14T05:53:30.451Z,16.15
2019-04-14T05:55:59.914Z,15.68
2019-04-14T05:58:29.706Z,16.32
2019-04-14T06:01:00.305Z,16.13
2019-04-14T06:03:30.003Z,16.09
2019-04-14T06:05:59.352Z,16.13
2019-04-14T06:08:28.805Z,15.41
2019-04-14T06:10:58.163Z,15.61
2019-04-14T06:13:27.677Z,15.70
2019-04-14T06:15:57.088Z,14.90
2019-04-14T06:18:27.387Z,15.24
2019-04-14T06:20:57.243Z,15.30
2019-04-14T06:23:27.932Z,15.72
2019-04-14T06:25:57.301Z,16.47
2019-04-14T06:28:26.624Z,16.22
2019-04-14T06:31:20.996Z,16.34
2019-04-14T06:34:12.340Z,15.97
2019-04-14T06:36:59.515Z,16.01
2019-04-14T06:39:31.723Z,16.33
2019-04-14T06:42:01.602Z,16.26
2019-04-14T06:44:30.981Z,14.59
2019-04-14T06:47:00.324Z,14.50
2019-04-14T06:49:29.753Z,13.50
2019-04-14T06:51:59.117Z,13.34
2019-04-14T06:54:28.502Z,13.16
2019-04-14T06:56:57.867Z,15.16
2019-04-14T06:59:27.204Z,15.90
2019-04-14T07:01:56.570Z,15.87
2019-04-14T07:04:25.990Z,14.54
2019-04-14T07:06:55.356Z,13.72
2019-04-14T07:09:24.765Z,13.72
2019-04-14T07:11:54.560Z,13.35
2019-04-14T07:14:23.906Z,13.04
2019-04-14T07:16:53.281Z,13.10
2019-04-14T07:19:22.622Z,14.55
2019-04-14T07:21:51.961Z,15.01
2019-04-14T07:24:21.326Z,14.38
2019-04-14T07:26:50.673Z,13.55
2019-04-14T07:29:20.048Z,13.32
2019-04-14T07:32:07.377Z,13.42
2019-04-14T07:34:58.766Z,13.09
2019-04-14T07:37:45.921Z,12.76
2019-04-14T07:40:31.193Z,12.70
2019-04-14T07:43:28.490Z,12.68
2019-04-14T07:46:11.611Z,13.13
2019-04-14T07:49:17.990Z,13.18
2019-04-14T07:52:06.264Z,12.56
2019-04-14T07:54:41.553Z,12.50
2019-04-14T07:57:35.721Z,12.72
2019-04-14T08:00:27.971Z,13.30
2019-04-14T08:03:05.080Z,13.83
2019-04-14T08:05:38.704Z,14.53
2019-04-14T08:08:08.262Z,14.29
2019-04-14T08:10:37.675Z,13.68
2019-04-14T08:13:07.014Z,13.54
2019-04-14T08:15:36.395Z,13.53
2019-04-14T08:18:05.735Z,13.51
2019-04-14T08:20:35.852Z,13.61
2019-04-14T08:23:05.256Z,13.56
2019-04-14T08:25:35.130Z,13.42
2019-04-14T08:28:04.774Z,13.29
2019-04-14T08:30:34.214Z,13.44
2019-04-14T08:33:03.591Z,13.20
2019-04-14T08:35:32.945Z,13.66
2019-04-14T08:38:02.263Z,15.42
2019-04-14T08:40:31.624Z,14.14
2019-04-14T08:43:32.055Z,14.23
2019-04-14T08:46:10.428Z,13.94
2019-04-14T08:48:48.053Z,13.32
2019-04-14T08:51:24.459Z,13.17
2019-04-14T08:54:11.692Z,14.80
2019-04-14T08:57:09.333Z,15.63
2019-04-14T09:00:15.815Z,14.69
2019-04-14T09:03:02.591Z,14.07
2019-04-14T09:05:46.084Z,13.39
2019-04-14T09:08:43.196Z,13.00
2019-04-14T09:11:12.557Z,13.12
2019-04-14T09:13:41.926Z,12.78
2019-04-14T09:16:11.280Z,13.15
2019-04-14T09:18:41.080Z,13.26
2019-04-14T09:21:12.691Z,13.10
2019-04-14T09:23:42.068Z,12.77
2019-04-14T09:26:11.464Z,13.00
2019-04-14T09:28:40.814Z,13.27
2019-04-14T09:31:10.635Z,13.64
2019-04-14T09:33:40.011Z,14.29
2019-04-14T09:36:09.483Z,13.57
2019-04-14T09:38:38.860Z,14.91
2019-04-14T09:41:08.267Z,15.15
2019-04-14T09:43:38.098Z,14.68
2019-04-14T09:46:07.565Z,14.15
2019-04-14T09:48:36.915Z,13.85
2019-04-14T09:51:06.458Z,13.54
2019-04-14T09:53:35.830Z,13.59
2019-04-14T09:56:05.252Z,13.69
2019-04-14T09:58:34.672Z,13.62
2019-04-14T10:01:04.013Z,13.44
2019-04-14T10:03:33.391Z,16.52
2019-04-14T10:06:02.754Z,16.15
2019-04-14T10:08:32.129Z,16.84
2019-04-14T10:11:01.856Z,16.30
2019-04-14T10:13:31.222Z,15.45
2019-04-14T10:16:00.629Z,15.06
2019-04-14T10:18:29.992Z,14.37
2019-04-14T10:20:59.498Z,14.30
2019-04-14T10:23:28.872Z,15.46
2019-04-14T10:25:58.221Z,15.02
2019-04-14T10:28:27.629Z,13.88
2019-04-14T10:30:57.074Z,14.17
2019-04-14T10:33:27.039Z,14.25
2019-04-14T10:35:57.335Z,15.23
2019-04-14T10:38:26.991Z,17.14
2019-04-14T10:40:56.848Z,17.60
2019-04-14T10:43:26.581Z,17.68
2019-04-14T10:45:56.322Z,17.94
2019-04-14T10:48:26.103Z,16.65
2019-04-14T10:50:59.465Z,15.63
2019-04-14T10:53:29.625Z,14.95
2019-04-14T10:55:59.343Z,14.54
2019-04-14T10:58:29.285Z,14.56
2019-04-14T11:00:59.195Z,15.41
2019-04-14T11:03:29.416Z,16.54
2019-04-14T11:06:12.942Z,16.04
2019-04-14T11:08:43.037Z,16.60
2019-04-14T11:11:13.057Z,17.12
2019-04-14T11:13:42.796Z,17.12
2019-04-14T11:16:12.609Z,17.44
2019-04-14T11:18:42.424Z,17.94
2019-04-14T11:21:13.024Z,17.95
2019-04-14T11:23:43.125Z,18.13
2019-04-14T11:26:12.549Z,17.47
2019-04-14T11:28:42.903Z,16.73
2019-04-14T11:31:14.895Z,16.37
2019-04-14T11:34:01.687Z,17.36
2019-04-14T11:36:46.209Z,17.74
2019-04-14T11:39:17.408Z,17.89
2019-04-14T11:41:48.890Z,18.06
2019-04-14T11:44:24.345Z,18.54
2019-04-14T11:46:56.263Z,18.28
2019-04-14T11:49:27.825Z,18.12
2019-04-14T11:51:59.937Z,18.03
2019-04-14T11:54:30.267Z,18.57
2019-04-14T11:56:59.973Z,18.59
2019-04-14T11:59:38.292Z,18.03
2019-04-14T12:02:16.795Z,18.24
2019-04-14T12:05:08.168Z,17.32
2019-04-14T12:07:45.500Z,17.14
2019-04-14T12:10:16.716Z,18.03
2019-04-14T12:12:47.857Z,17.44
2019-04-14T12:15:17.348Z,17.73
2019-04-14T12:17:47.034Z,17.22
2019-04-14T12:20:16.422Z,17.93
2019-04-14T12:22:45.854Z,17.60
2019-04-14T12:25:15.374Z,17.90
2019-04-14T12:27:44.743Z,18.11
2019-04-14T12:30:14.283Z,17.83
2019-04-14T12:32:43.819Z,17.32
2019-04-14T12:35:13.421Z,17.75
2019-04-14T12:37:43.884Z,17.34
2019-04-14T12:40:13.482Z,17.27
2019-04-14T12:43:07.985Z,17.88
2019-04-14T12:46:06.421Z,18.46
2019-04-14T12:48:48.063Z,17.29
2019-04-14T12:51:21.404Z,16.02
2019-04-14T12:53:50.795Z,15.38
2019-04-14T12:56:23.977Z,15.10
2019-04-14T12:59:18.791Z,14.31
2019-04-14T13:02:06.026Z,14.27
2019-04-14T13:04:35.418Z,14.86
2019-04-14T13:07:04.919Z,15.55
2019-04-14T13:09:34.739Z,16.24
2019-04-14T13:12:04.088Z,15.87
2019-04-14T13:14:33.464Z,15.17
2019-04-14T13:17:02.836Z,15.34
2019-04-14T13:19:32.226Z,15.86
2019-04-14T13:22:01.684Z,16.03
2019-04-14T13:24:31.489Z,16.16
2019-04-14T13:27:01.170Z,15.58
2019-04-14T13:29:30.551Z,15.13
2019-04-14T13:32:01.187Z,14.85
2019-04-14T13:34:30.587Z,14.59
2019-04-14T13:36:59.988Z,14.29
2019-04-14T13:39:29.542Z,14.09
2019-04-14T13:41:59.056Z,14.33
2019-04-14T13:44:28.505Z,14.29
2019-04-14T13:46:57.866Z,14.33
2019-04-14T13:49:27.444Z,14.38
2019-04-14T13:51:56.838Z,14.35
2019-04-14T13:54:26.632Z,14.12
2019-04-14T13:56:56.271Z,14.02
2019-04-14T13:59:25.669Z,13.82
2019-04-14T14:01:55.448Z,13.98
2019-04-14T14:04:25.398Z,14.01
2019-04-14T14:06:54.888Z,12.71
2019-04-14T14:09:24.806Z,13.96
2019-04-14T14:12:18.962Z,14.06
2019-04-14T14:15:19.275Z,14.18
2019-04-14T14:18:07.542Z,13.94
2019-04-14T14:21:02.282Z,13.97
2019-04-14T14:23:48.834Z,13.86
2019-04-14T14:26:19.298Z,14.02
2019-04-14T14:28:49.143Z,13.70
2019-04-14T14:31:19.837Z,13.58
2019-04-14T14:33:49.264Z,13.46
2019-04-14T14:36:18.637Z,13.35
2019-04-14T14:38:48.029Z,13.37
2019-04-14T14:41:18.164Z,13.01
2019-04-14T14:43:47.984Z,13.35
2019-04-14T14:46:36.913Z,13.41
2019-04-14T14:49:10.248Z,13.19
2019-04-14T14:51:54.201Z,13.55
2019-04-14T14:54:23.556Z,13.53
2019-04-14T14:56:52.973Z,13.37
2019-04-14T14:59:22.356Z,13.33
2019-04-14T15:01:51.763Z,13.26
2019-04-14T15:04:21.157Z,13.22
2019-04-14T15:06:50.498Z,13.02
2019-04-14T15:09:19.864Z,13.13
2019-04-14T15:11:49.232Z,12.92
2019-04-14T15:14:18.602Z,12.72
2019-04-14T15:16:48.371Z,12.81
2019-04-14T15:19:17.828Z,13.03
2019-04-14T15:21:47.256Z,13.18
2019-04-14T15:24:16.619Z,13.38
2019-04-14T15:26:46.029Z,13.09
2019-04-14T15:29:15.515Z,12.94
2019-04-14T15:31:44.870Z,12.90
2019-04-14T15:34:14.279Z,12.54
2019-04-14T15:36:43.761Z,12.49
2019-04-14T15:39:14.030Z,12.34
2019-04-14T15:41:43.425Z,12.14
2019-04-14T15:44:12.913Z,12.17
2019-04-14T15:46:42.410Z,12.42
2019-04-14T15:49:11.807Z,12.17
2019-04-14T15:51:41.237Z,12.12
2019-04-14T15:54:10.659Z,12.12
2019-04-14T15:56:55.671Z,12.24
2019-04-14T16:00:02.193Z,12.21
2019-04-14T16:02:37.242Z,11.95
2019-04-14T16:05:13.318Z,11.99
2019-04-14T16:07:58.324Z,11.95
2019-04-14T16:10:50.979Z,12.05
2019-04-14T16:13:42.484Z,11.97
2019-04-14T16:16:36.875Z,11.73
2019-04-14T16:19:15.580Z,11.60
2019-04-14T16:21:45.001Z,11.49
2019-04-14T16:24:14.369Z,11.38
2019-04-14T16:26:54.348Z,11.40
2019-04-14T16:29:31.743Z,11.20
2019-04-14T16:32:11.076Z,11.10
2019-04-14T16:34:53.029Z,11.07
2019-04-14T16:37:23.048Z,11.08
2019-04-14T16:39:52.429Z,11.13
2019-04-14T16:42:22.782Z,11.08
2019-04-14T16:44:52.226Z,10.92
2019-04-14T16:47:21.679Z,10.82
2019-04-14T16:49:51.216Z,10.75
2019-04-14T16:52:42.139Z,10.73
2019-04-14T16:55:18.861Z,10.66
2019-04-14T16:58:08.856Z,10.56
2019-04-14T17:00:41.609Z,10.49
2019-04-14T17:03:11.109Z,10.45
2019-04-14T17:05:41.067Z,10.39
2019-04-14T17:08:10.837Z,10.39
2019-04-14T17:10:41.352Z,10.33
2019-04-14T17:13:11.012Z,10.28
2019-04-14T17:16:05.407Z,10.38
2019-04-14T17:18:53.843Z,10.48
2019-04-14T17:21:37.567Z,10.38
2019-04-14T17:24:29.999Z,10.28
2019-04-14T17:27:05.839Z,10.35
2019-04-14T17:29:57.462Z,10.36
2019-04-14T17:32:33.451Z,10.48
2019-04-14T17:35:21.326Z,10.45
2019-04-14T17:37:57.596Z,10.46
2019-04-14T17:40:40.992Z,10.51
2019-04-14T17:43:29.538Z,10.50
2019-04-14T17:46:03.665Z,10.46
2019-04-14T17:48:54.837Z,10.39
2019-04-14T17:51:38.479Z,10.36
2019-04-14T17:54:36.096Z,10.36
2019-04-14T17:57:37.159Z,10.35
2019-04-14T18:00:25.771Z,10.34
2019-04-14T18:03:01.180Z,10.42
2019-04-14T18:05:38.255Z,10.44
2019-04-14T18:08:17.610Z,10.39
2019-04-14T18:10:55.311Z,10.22
2019-04-14T18:13:40.130Z,10.19
2019-04-14T18:16:26.170Z,10.17
2019-04-14T18:19:33.002Z,8.29
2019-04-14T18:22:03.141Z,10.10
2019-04-14T18:24:42.432Z,10.09
2019-04-14T18:27:05.193Z,10.17
2019-04-14T18:29:39.340Z,10.29
2019-04-14T18:32:29.021Z,10.36
2019-04-14T18:35:12.543Z,10.29
2019-04-14T18:38:06.374Z,10.20
2019-04-14T18:40:58.697Z,10.14
2019-04-14T18:43:56.071Z,10.07
2019-04-14T18:47:13.937Z,10.09
2019-04-14T18:50:06.500Z,10.08
2019-04-14T18:52:59.439Z,10.10
2019-04-14T18:56:08.585Z,10.13
2019-04-14T18:59:18.143Z,10.09
2019-04-14T19:02:02.252Z,10.13
2019-04-14T19:04:32.835Z,10.06
2019-04-14T19:07:38.651Z,10.09
2019-04-14T19:10:08.271Z,10.16
2019-04-14T19:12:56.590Z,10.18
2019-04-14T19:15:36.174Z,10.17
2019-04-14T19:18:15.780Z,10.17
2019-04-14T19:20:48.430Z,10.19
2019-04-14T19:23:18.745Z,10.20
2019-04-14T19:25:48.153Z,10.16
2019-04-14T19:28:17.605Z,10.18
2019-04-14T19:30:46.999Z,10.15
2019-04-14T19:33:16.417Z,8.70
2019-04-14T19:35:45.865Z,10.15
2019-04-14T19:38:15.270Z,10.14
2019-04-14T19:40:44.794Z,10.06
2019-04-14T19:43:23.661Z,10.04
2019-04-14T19:45:45.308Z,10.07
2019-04-14T19:48:15.632Z,10.10
2019-04-14T19:50:45.904Z,10.06
2019-04-14T19:53:15.312Z,10.05
2019-04-14T19:55:44.692Z,10.04
2019-04-14T19:58:14.890Z,10.07
2019-04-14T20:00:44.275Z,10.09
2019-04-14T20:03:13.681Z,10.09
2019-04-14T20:05:43.126Z,10.11
2019-04-14T20:08:12.516Z,10.09
2019-04-14T20:10:41.956Z,9.98
2019-04-14T20:13:11.353Z,9.90
2019-04-14T20:15:58.565Z,9.92
2019-04-14T20:18:41.267Z,9.96
2019-04-14T20:21:41.721Z,9.92
2019-04-14T20:24:16.840Z,9.88
2019-04-14T20:27:01.977Z,9.96
2019-04-14T20:29:37.750Z,9.93
2019-04-14T20:32:13.298Z,9.97
2019-04-14T20:34:43.525Z,9.94
2019-04-14T20:37:12.990Z,9.95
2019-04-14T20:39:42.486Z,9.96
2019-04-14T20:42:11.934Z,9.97
2019-04-14T20:44:41.283Z,9.91
2019-04-14T20:47:10.738Z,9.95
2019-04-14T20:49:40.467Z,10.00
2019-04-14T20:52:10.170Z,9.97
2019-04-14T20:54:39.689Z,9.90
2019-04-14T20:57:09.087Z,9.90
2019-04-14T20:59:39.460Z,9.89
2019-04-14T21:02:37.589Z,9.84
2019-04-14T21:05:15.253Z,9.90
2019-04-14T21:08:06.314Z,9.78
2019-04-14T21:10:42.737Z,9.77
2019-04-14T21:13:36.882Z,9.72
2019-04-14T21:16:13.924Z,9.76
2019-04-14T21:18:51.864Z,9.70
2019-04-14T21:21:42.533Z,9.63
2019-04-14T21:24:30.739Z,9.70
2019-04-14T21:27:28.161Z,9.60
2019-04-14T21:30:15.241Z,9.57
2019-04-14T21:32:53.156Z,9.52
2019-04-14T21:35:32.882Z,9.46
2019-04-14T21:38:09.156Z,9.43
2019-04-14T21:40:45.964Z,9.48
2019-04-14T21:43:16.396Z,9.42
2019-04-14T21:45:45.874Z,9.35
2019-04-14T21:48:15.268Z,9.36
2019-04-14T21:50:49.064Z,9.41
2019-04-14T21:53:19.382Z,9.40
2019-04-14T21:55:48.830Z,9.39
2019-04-14T21:58:43.270Z,9.41
2019-04-14T22:01:56.307Z,9.42
2019-04-14T22:04:43.618Z,9.41
2019-04-14T22:07:32.578Z,9.38
2019-04-14T22:10:10.193Z,9.45
2019-04-14T22:12:39.927Z,9.47
2019-04-14T22:15:09.800Z,9.41
2019-04-14T22:17:39.971Z,9.45
2019-04-14T22:20:10.588Z,9.47
2019-04-14T22:22:40.436Z,9.37
2019-04-14T22:25:10.923Z,9.32
2019-04-14T22:27:42.991Z,9.34
2019-04-14T22:30:12.581Z,9.37
2019-04-14T22:32:42.070Z,9.36
2019-04-14T22:35:11.719Z,9.26
2019-04-14T22:37:41.403Z,9.20
2019-04-14T22:40:12.030Z,9.29
2019-04-14T22:42:41.463Z,9.30
2019-04-14T22:45:11.581Z,9.29
2019-04-14T22:47:41.034Z,9.26
2019-04-14T22:50:12.148Z,9.23
2019-04-14T22:52:43.406Z,9.23
2019-04-14T22:55:13.010Z,9.23
2019-04-14T22:57:42.593Z,9.33
2019-04-14T23:00:18.498Z,9.30
2019-04-14T23:02:59.460Z,9.28
2019-04-14T23:05:44.760Z,9.34
2019-04-14T23:08:48.397Z,9.31
2019-04-14T23:11:35.772Z,9.33
2019-04-14T23:14:23.855Z,9.32
2019-04-14T23:17:27.476Z,9.38
2019-04-14T23:20:14.458Z,9.43
2019-04-14T23:23:03.872Z,9.43
2019-04-14T23:25:33.690Z,9.40
2019-04-14T23:28:03.196Z,9.41
2019-04-14T23:30:33.527Z,9.31
2019-04-14T23:33:03.742Z,9.27
2019-04-14T23:35:33.150Z,9.20
2019-04-14T23:38:03.077Z,8.81
2019-04-14T23:40:33.365Z,8.66
2019-04-14T23:43:02.793Z,8.61
2019-04-14T23:45:32.719Z,8.54
2019-04-14T23:48:02.170Z,8.51
2019-04-14T23:50:31.629Z,8.57
2019-04-14T23:53:01.173Z,8.59
2019-04-14T23:55:30.686Z,8.72
2019-04-14T23:58:01.010Z,8.72
